createdAt,value
2023-10-06T00:01:24.799Z,6.1
2023-10-06T00:03:51.532Z,6.1
2023-10-06T00:06:18.217Z,6.1
2023-10-06T00:08:44.849Z,6.1
2023-10-06T00:13:38.220Z,5.9
2023-10-06T00:16:03.488Z,5.9
2023-10-06T00:18:28.762Z,5.9
2023-10-06T00:20:55.536Z,5.8
2023-10-06T00:23:22.063Z,5.8
2023-10-06T00:28:15.484Z,5.7
2023-10-06T00:30:42.114Z,5.6
2023-10-06T00:33:08.797Z,5.6
2023-10-06T00:35:35.494Z,5.6
2023-10-06T00:38:02.275Z,5.6
2023-10-06T00:42:55.598Z,5.6
2023-10-06T00:45:22.235Z,5.6
2023-10-06T00:47:47.623Z,5.5
2023-10-06T00:50:14.240Z,5.5
2023-10-06T00:52:39.402Z,5.5
2023-10-06T00:57:32.777Z,5.4
2023-10-06T00:59:59.532Z,5.4
2023-10-06T01:02:26.184Z,5.3
2023-10-06T01:04:52.809Z,5.3
2023-10-06T01:07:19.499Z,5.4
2023-10-06T01:09:46.188Z,5.3
2023-10-06T01:12:12.873Z,5.3
2023-10-06T01:14:39.559Z,5.3
2023-10-06T01:17:06.244Z,5.3
2023-10-06T01:19:32.918Z,5.3
2023-10-06T01:21:59.684Z,5.3
2023-10-06T01:24:24.827Z,5.4
2023-10-06T01:26:51.532Z,5.3
2023-10-06T01:29:18.212Z,5.4
2023-10-06T01:31:44.977Z,5.3
2023-10-06T01:34:11.571Z,5.3
2023-10-06T01:36:38.266Z,5.3
2023-10-06T01:39:04.943Z,5.2
2023-10-06T01:41:30.285Z,5.2
2023-10-06T01:43:55.406Z,5.2
2023-10-06T01:46:22.089Z,5.2
2023-10-06T01:51:15.453Z,5.3
2023-10-06T01:53:42.217Z,5.3
2023-10-06T01:56:08.934Z,5.4
2023-10-06T01:58:35.518Z,5.3
2023-10-06T02:01:02.197Z,5.2
2023-10-06T02:03:28.881Z,5.1
2023-10-06T02:05:55.579Z,5.1
2023-10-06T02:08:22.266Z,5.1
2023-10-06T02:10:48.932Z,5.1
2023-10-06T02:13:15.736Z,5.1
2023-10-06T02:15:42.307Z,5.2
2023-10-06T02:18:07.521Z,5.3
2023-10-06T02:20:34.217Z,5.3
2023-10-06T02:23:00.892Z,5.4
2023-10-06T02:25:27.584Z,5.5
2023-10-06T02:27:54.474Z,5.6
2023-10-06T02:30:21.026Z,5.6
2023-10-06T02:32:46.190Z,5.8
2023-10-06T02:35:11.420Z,5.8
2023-10-06T02:40:04.807Z,5.9
2023-10-06T02:42:31.465Z,5.9
2023-10-06T02:44:58.317Z,6
2023-10-06T02:47:24.851Z,6.1
2023-10-06T02:49:51.770Z,6.2
2023-10-06T02:52:18.208Z,6.2
2023-10-06T02:54:44.895Z,6.2
2023-10-06T02:57:11.596Z,6.2
2023-10-06T02:59:38.385Z,6.2
2023-10-06T03:02:04.948Z,6.2
2023-10-06T03:04:31.677Z,6.2
2023-10-06T03:06:56.864Z,6.3
2023-10-06T03:09:23.535Z,6.3
2023-10-06T03:11:50.219Z,6.3
2023-10-06T03:14:16.899Z,6.4
2023-10-06T03:16:43.579Z,6.4
2023-10-06T03:19:10.267Z,6.5
2023-10-06T03:21:37.053Z,6.5
2023-10-06T03:24:03.650Z,6.5
2023-10-06T03:26:30.326Z,6.5
2023-10-06T03:28:57.004Z,6.5
2023-10-06T03:31:23.768Z,6.5
2023-10-06T03:33:50.374Z,6.4
2023-10-06T03:38:43.814Z,6.4
2023-10-06T03:41:10.427Z,6.4
2023-10-06T03:43:37.112Z,6.3
2023-10-06T03:46:02.381Z,6.3
2023-10-06T03:48:29.017Z,6.3
2023-10-06T03:50:55.773Z,6.3
2023-10-06T03:53:22.377Z,6.2
2023-10-06T03:55:49.079Z,6.2
2023-10-06T03:58:15.762Z,6.2
2023-10-06T04:00:42.441Z,6.2
2023-10-06T04:03:09.125Z,6.2
2023-10-06T04:05:35.811Z,6.1
2023-10-06T04:08:02.575Z,6.1
2023-10-06T04:10:29.178Z,6.1
2023-10-06T04:12:55.857Z,6.1
2023-10-06T04:15:22.561Z,6.1
2023-10-06T04:17:49.227Z,6.1
2023-10-06T04:20:14.455Z,6.1
2023-10-06T04:22:41.185Z,6.2
2023-10-06T04:25:07.815Z,6.2
2023-10-06T04:27:34.501Z,6.2
2023-10-06T04:30:01.198Z,6.1
2023-10-06T04:32:27.956Z,6.2
2023-10-06T04:34:54.556Z,6.1
2023-10-06T04:37:21.334Z,6.1
2023-10-06T04:39:48.013Z,6.2
2023-10-06T04:42:14.618Z,6.1
2023-10-06T04:44:41.307Z,6.1
2023-10-06T04:47:08.093Z,6.1
2023-10-06T04:49:34.667Z,6.1
2023-10-06T04:51:59.884Z,6.1
2023-10-06T04:54:26.571Z,6.1
2023-10-06T04:56:53.255Z,6.1
2023-10-06T04:59:19.947Z,6.1
2023-10-06T05:01:46.660Z,6.2
2023-10-06T05:04:13.319Z,6.2
2023-10-06T05:06:40.095Z,6.2
2023-10-06T05:09:06.708Z,6.2
2023-10-06T05:11:33.389Z,6.2
2023-10-06T05:14:00.063Z,6.2
2023-10-06T05:16:26.762Z,6.2
2023-10-06T05:21:20.179Z,6.1
2023-10-06T05:23:45.370Z,6
2023-10-06T05:26:11.992Z,5.9
2023-10-06T05:28:38.755Z,5.9
2023-10-06T05:31:05.385Z,6
2023-10-06T05:33:32.068Z,5.9
2023-10-06T05:35:58.848Z,6
2023-10-06T05:38:25.481Z,6
2023-10-06T05:40:52.191Z,6
2023-10-06T05:43:18.970Z,6
2023-10-06T05:45:45.598Z,6
2023-10-06T05:48:12.190Z,6.1
2023-10-06T05:50:38.895Z,6.1
2023-10-06T05:53:05.658Z,6.1
2023-10-06T05:55:32.350Z,6.1
2023-10-06T05:57:57.487Z,6.1
2023-10-06T06:00:22.845Z,6.1
2023-10-06T06:02:49.460Z,6.1
2023-10-06T06:05:16.101Z,6.1
2023-10-06T06:07:42.976Z,6.1
2023-10-06T06:10:09.555Z,6.1
2023-10-06T06:12:36.352Z,6.2
2023-10-06T06:15:02.854Z,6.1
2023-10-06T06:17:29.604Z,6.2
2023-10-06T06:19:56.308Z,6.2
2023-10-06T06:24:49.552Z,6.3
2023-10-06T06:27:16.446Z,6.3
2023-10-06T06:29:43.019Z,6.4
2023-10-06T06:32:09.663Z,6.4
2023-10-06T06:34:36.322Z,6.5
2023-10-06T06:37:01.523Z,6.5
2023-10-06T06:39:28.172Z,6.5
2023-10-06T06:41:55.101Z,6.6
2023-10-06T06:44:21.548Z,6.7
2023-10-06T06:46:48.421Z,6.9
2023-10-06T06:49:14.919Z,7.3
2023-10-06T06:51:41.639Z,7.4
2023-10-06T06:54:08.428Z,7.7
2023-10-06T06:56:35.143Z,8.4
2023-10-06T06:59:01.641Z,8.7
2023-10-06T07:01:28.489Z,9.2
2023-10-06T07:03:55.073Z,9.9
2023-10-06T07:06:21.774Z,10.2
2023-10-06T07:08:48.434Z,10.6
2023-10-06T07:11:13.686Z,10.6
2023-10-06T07:13:40.298Z,9.9
2023-10-06T07:16:07.097Z,10
2023-10-06T07:18:33.668Z,10.7
2023-10-06T07:21:00.350Z,11
2023-10-06T07:23:27.321Z,12.3
2023-10-06T07:25:53.749Z,13.6
2023-10-06T07:28:20.453Z,15.3
2023-10-06T07:30:47.212Z,16.1
2023-10-06T07:33:13.852Z,16.8
2023-10-06T07:35:40.584Z,17.6
2023-10-06T07:38:07.164Z,17.9
2023-10-06T07:40:33.832Z,18.4
2023-10-06T07:42:59.110Z,19.1
2023-10-06T07:45:25.957Z,18.9
2023-10-06T07:47:52.711Z,19
2023-10-06T07:50:19.167Z,19.1
2023-10-06T07:52:45.964Z,18.9
2023-10-06T07:55:12.475Z,19.3
2023-10-06T07:57:39.225Z,19.2
2023-10-06T08:00:05.843Z,19.3
2023-10-06T08:02:32.645Z,19.4
2023-10-06T08:04:59.201Z,20
2023-10-06T08:07:25.932Z,20.6
2023-10-06T08:09:52.687Z,20.9
2023-10-06T08:12:19.281Z,21.7
2023-10-06T08:14:44.547Z,21.7
2023-10-06T08:17:11.165Z,21.6
2023-10-06T08:19:37.872Z,21.5
2023-10-06T08:22:04.612Z,21.7
2023-10-06T08:24:31.219Z,21.3
2023-10-06T08:26:58.083Z,21.5
2023-10-06T08:29:24.634Z,21.5
2023-10-06T08:31:51.455Z,21.7
2023-10-06T08:34:18.033Z,22
2023-10-06T08:36:44.786Z,22.5
2023-10-06T08:39:11.510Z,22.8
2023-10-06T08:41:38.071Z,23
2023-10-06T08:44:04.736Z,23
2023-10-06T08:46:30.011Z,22.9
2023-10-06T08:48:56.677Z,23.1
2023-10-06T08:51:23.303Z,23.5
2023-10-06T08:53:49.987Z,23.8
2023-10-06T08:56:16.651Z,24.4
2023-10-06T09:01:10.140Z,24.5
2023-10-06T09:03:36.825Z,24.1
2023-10-06T09:06:03.391Z,24.8
2023-10-06T09:08:30.115Z,25.2
2023-10-06T09:10:56.950Z,25.5
2023-10-06T09:13:23.805Z,25.6
2023-10-06T09:15:50.556Z,25.6
2023-10-06T09:18:15.668Z,25.1
2023-10-06T09:20:42.264Z,25
2023-10-06T09:23:09.027Z,25.4
2023-10-06T09:25:35.633Z,25.5
2023-10-06T09:30:28.772Z,26
2023-10-06T09:32:55.664Z,25.8
2023-10-06T09:35:22.435Z,25.5
2023-10-06T09:37:49.211Z,25.9
2023-10-06T09:40:15.499Z,25.6
2023-10-06T09:42:42.380Z,26.2
2023-10-06T09:45:08.943Z,26.5
2023-10-06T09:47:35.852Z,26.4
2023-10-06T09:50:00.990Z,26.3
2023-10-06T09:52:27.784Z,25
2023-10-06T09:54:54.326Z,23.7
2023-10-06T09:57:21.046Z,22
2023-10-06T09:59:47.512Z,21.7
2023-10-06T10:02:14.178Z,21.8
2023-10-06T10:04:40.896Z,21.9
2023-10-06T10:07:07.807Z,21.9
2023-10-06T10:09:34.543Z,21.9
2023-10-06T10:12:01.206Z,21.8
2023-10-06T10:14:27.758Z,21.6
2023-10-06T10:16:54.655Z,21.5
2023-10-06T10:19:21.248Z,21.3
2023-10-06T10:21:46.568Z,21.3
2023-10-06T10:24:12.905Z,21.4
2023-10-06T10:26:39.911Z,21.5
2023-10-06T10:29:06.279Z,21.5
2023-10-06T10:31:33.236Z,21.5
2023-10-06T10:33:59.906Z,21.7
2023-10-06T10:36:26.636Z,22
2023-10-06T10:38:52.999Z,21.9
2023-10-06T10:41:19.719Z,21.7
2023-10-06T10:43:46.349Z,21.7
2023-10-06T10:46:13.109Z,21.5
2023-10-06T10:48:40.080Z,20.8
2023-10-06T10:51:06.717Z,21
2023-10-06T10:53:32.051Z,21.5
2023-10-06T10:55:58.677Z,21.6
2023-10-06T10:58:25.354Z,21.6
2023-10-06T11:00:51.801Z,21.5
2023-10-06T11:03:18.367Z,21.7
2023-10-06T11:05:45.378Z,21.7
2023-10-06T11:08:11.937Z,21.9
2023-10-06T11:10:38.694Z,22
2023-10-06T11:13:05.388Z,22
2023-10-06T11:15:31.789Z,22
2023-10-06T11:17:58.804Z,22.1
2023-10-06T11:20:25.152Z,22.2
2023-10-06T11:22:51.856Z,22.2
2023-10-06T11:27:45.544Z,21.9
2023-10-06T11:30:10.810Z,21.9
2023-10-06T11:32:37.441Z,22
2023-10-06T11:35:04.017Z,22.1
2023-10-06T11:37:30.577Z,22.1
2023-10-06T11:39:57.514Z,21.9
2023-10-06T11:42:24.168Z,21.7
2023-10-06T11:44:50.852Z,21.8
2023-10-06T11:47:17.337Z,21.8
2023-10-06T11:49:44.004Z,21.9
2023-10-06T11:52:10.414Z,21.7
2023-10-06T11:54:37.390Z,21.7
2023-10-06T11:57:04.107Z,21.9
2023-10-06T11:59:30.645Z,21.8
2023-10-06T12:01:57.291Z,21.7
2023-10-06T12:04:24.120Z,21.7
2023-10-06T12:06:50.790Z,21.7
2023-10-06T12:09:16.007Z,21.6
2023-10-06T12:11:42.734Z,21.7
2023-10-06T12:14:09.383Z,21.7
2023-10-06T12:16:36.081Z,21.7
2023-10-06T12:19:02.549Z,21.7
2023-10-06T12:21:29.328Z,21.8
2023-10-06T12:23:56.113Z,22
2023-10-06T12:26:22.739Z,22
2023-10-06T12:28:49.553Z,21.9
2023-10-06T12:31:16.085Z,21.9
2023-10-06T12:33:42.797Z,21.8
2023-10-06T12:36:09.459Z,21.8
2023-10-06T12:38:36.053Z,21.7
2023-10-06T12:41:01.396Z,21.8
2023-10-06T12:43:27.986Z,21.7
2023-10-06T12:45:54.785Z,21.6
2023-10-06T12:48:21.468Z,21.6
2023-10-06T12:50:47.901Z,21.6
2023-10-06T12:53:14.756Z,21.6
2023-10-06T12:55:41.590Z,21.7
2023-10-06T12:58:08.195Z,21.7
2023-10-06T13:00:34.897Z,21.7
2023-10-06T13:03:01.419Z,21.7
2023-10-06T13:05:28.321Z,21.7
2023-10-06T13:07:55.023Z,21.7
2023-10-06T13:10:21.522Z,21.6
2023-10-06T13:12:48.338Z,21.6
2023-10-06T13:15:15.091Z,21.6
2023-10-06T13:17:40.209Z,21.6
2023-10-06T13:20:06.860Z,21.5
2023-10-06T13:25:00.281Z,21.4
2023-10-06T13:27:26.825Z,21.3
2023-10-06T13:29:53.670Z,21.3
2023-10-06T13:32:20.334Z,21.3
2023-10-06T13:34:47.082Z,21.3
2023-10-06T13:37:13.765Z,21.2
2023-10-06T13:39:40.133Z,21.1
2023-10-06T13:42:07.084Z,21.2
2023-10-06T13:44:33.700Z,21.2
2023-10-06T13:47:00.450Z,21.3
2023-10-06T13:49:25.647Z,21.3
2023-10-06T13:54:18.967Z,21.3
2023-10-06T13:59:12.456Z,21.1
2023-10-06T14:01:37.683Z,21.1
2023-10-06T14:04:02.576Z,21.2
2023-10-06T14:06:29.635Z,21.2
2023-10-06T14:08:56.243Z,21.2
2023-10-06T14:11:21.447Z,21.1
2023-10-06T14:13:48.100Z,21
2023-10-06T14:16:14.575Z,20.9
2023-10-06T14:18:41.258Z,20.9
2023-10-06T14:23:35.009Z,20.8
2023-10-06T14:26:01.677Z,20.8
2023-10-06T14:28:28.321Z,20.7
2023-10-06T14:30:54.986Z,20.7
2023-10-06T14:33:21.682Z,20.7
2023-10-06T14:35:48.202Z,20.6
2023-10-06T14:38:14.853Z,20.6
2023-10-06T14:40:41.755Z,20.5
2023-10-06T14:43:08.390Z,20.4
2023-10-06T14:45:33.656Z,20.4
2023-10-06T14:48:00.037Z,20.4
2023-10-06T14:52:53.690Z,20.2
2023-10-06T14:55:20.235Z,20.2
2023-10-06T14:57:46.721Z,20.2
2023-10-06T15:00:13.542Z,20.1
2023-10-06T15:02:40.362Z,20.1
2023-10-06T15:07:33.663Z,20
2023-10-06T15:09:58.913Z,20.1
2023-10-06T15:12:25.713Z,20.1
2023-10-06T15:14:50.842Z,20.1
2023-10-06T15:17:17.311Z,20.1
2023-10-06T15:22:11.022Z,20
2023-10-06T15:24:37.726Z,20
2023-10-06T15:27:04.056Z,19.9
2023-10-06T15:29:30.756Z,19.8
2023-10-06T15:31:57.820Z,19.8
2023-10-06T15:34:24.422Z,19.8
2023-10-06T15:36:51.108Z,19.7
2023-10-06T15:39:17.516Z,19.6
2023-10-06T15:41:44.481Z,19.6
2023-10-06T15:44:10.851Z,19.5
2023-10-06T15:46:37.909Z,19.5
2023-10-06T15:49:02.760Z,19.4
2023-10-06T15:51:29.703Z,19.4
2023-10-06T15:53:56.406Z,19.3
2023-10-06T15:56:22.962Z,19.2
2023-10-06T15:58:49.842Z,19.2
2023-10-06T16:01:16.297Z,19.1
2023-10-06T16:06:08.466Z,18.9
2023-10-06T16:08:35.126Z,18.8
2023-10-06T16:11:01.710Z,18.7
2023-10-06T16:13:27.030Z,18.7
2023-10-06T16:15:53.671Z,18.5
2023-10-06T16:18:20.380Z,18.4
2023-10-06T16:20:47.034Z,18.3
2023-10-06T16:23:13.553Z,18.2
2023-10-06T16:25:40.247Z,18
2023-10-06T16:28:07.119Z,17.8
2023-10-06T16:30:33.639Z,17.6
2023-10-06T16:33:00.474Z,17.4
2023-10-06T16:35:27.086Z,17.3
2023-10-06T16:37:53.557Z,17.3
2023-10-06T16:40:20.043Z,17.2
2023-10-06T16:42:47.026Z,17.1
2023-10-06T16:45:13.616Z,16.9
2023-10-06T16:47:40.084Z,16.7
2023-10-06T16:50:06.830Z,16.6
2023-10-06T16:52:33.755Z,16.5
2023-10-06T16:55:00.479Z,16.4
2023-10-06T16:57:26.829Z,16.3
2023-10-06T16:59:53.500Z,16.1
2023-10-06T17:02:20.199Z,16.1
2023-10-06T17:04:47.100Z,16
2023-10-06T17:07:13.838Z,15.9
2023-10-06T17:09:40.577Z,15.9
2023-10-06T17:12:07.247Z,15.9
2023-10-06T17:14:33.924Z,15.8
2023-10-06T17:17:00.540Z,15.8
2023-10-06T17:19:27.287Z,15.7
2023-10-06T17:21:53.847Z,15.7
2023-10-06T17:26:47.356Z,15.6
2023-10-06T17:29:13.833Z,15.5
2023-10-06T17:31:40.536Z,15.5
2023-10-06T17:34:07.264Z,15.4
2023-10-06T17:36:33.811Z,15.3
2023-10-06T17:39:00.526Z,15.3
2023-10-06T17:41:26.037Z,15.2
2023-10-06T17:43:52.795Z,15
2023-10-06T17:46:19.414Z,15
2023-10-06T17:48:46.128Z,14.9
2023-10-06T17:51:12.756Z,14.9
2023-10-06T17:53:37.657Z,14.8
2023-10-06T17:56:04.338Z,14.9
2023-10-06T17:58:31.331Z,14.8
2023-10-06T18:00:57.871Z,14.8
2023-10-06T18:03:24.651Z,14.8
2023-10-06T18:05:49.761Z,14.7
2023-10-06T18:08:16.613Z,14.7
2023-10-06T18:10:43.377Z,14.6
2023-10-06T18:13:09.968Z,14.6
2023-10-06T18:15:36.704Z,14.6
2023-10-06T18:18:03.433Z,14.6
2023-10-06T18:20:28.568Z,14.6
2023-10-06T18:22:55.125Z,14.6
2023-10-06T18:27:48.636Z,14.6
2023-10-06T18:30:15.384Z,14.5
2023-10-06T18:32:41.837Z,14.5
2023-10-06T18:35:08.703Z,14.5
2023-10-06T18:37:35.305Z,14.4
2023-10-06T18:40:02.001Z,14.3
2023-10-06T18:42:28.458Z,14.1
2023-10-06T18:47:22.158Z,13.7
2023-10-06T18:49:47.376Z,13.6
2023-10-06T18:52:14.042Z,13.5
2023-10-06T18:54:39.313Z,13.3
2023-10-06T18:57:06.021Z,13.2
2023-10-06T19:01:59.267Z,13
2023-10-06T19:04:26.047Z,12.9
2023-10-06T19:06:52.665Z,12.8
2023-10-06T19:09:19.116Z,12.6
2023-10-06T19:11:45.749Z,12.4
2023-10-06T19:16:39.474Z,12.1
2023-10-06T19:19:06.077Z,12
2023-10-06T19:21:32.761Z,12
2023-10-06T19:23:59.495Z,12
2023-10-06T19:26:26.290Z,11.9
2023-10-06T19:28:52.887Z,11.8
2023-10-06T19:31:18.126Z,11.7
2023-10-06T19:33:44.872Z,11.6
2023-10-06T19:36:11.162Z,11.5
2023-10-06T19:38:38.133Z,11.4
2023-10-06T19:41:04.845Z,11.3
2023-10-06T19:43:30.168Z,11.1
2023-10-06T19:45:56.965Z,11
2023-10-06T19:48:23.409Z,10.9
2023-10-06T19:50:50.142Z,10.7
2023-10-06T19:53:16.608Z,10.6
2023-10-06T19:55:43.577Z,10.5
2023-10-06T19:58:10.209Z,10.6
2023-10-06T20:00:36.869Z,10.5
2023-10-06T20:03:02.143Z,10.4
2023-10-06T20:05:28.784Z,10.4
2023-10-06T20:07:54.036Z,10.3
2023-10-06T20:10:20.572Z,10.3
2023-10-06T20:12:47.385Z,10.2
2023-10-06T20:15:13.817Z,10.1
2023-10-06T20:17:40.760Z,10.1
2023-10-06T20:20:07.347Z,10.1
2023-10-06T20:22:33.920Z,10
2023-10-06T20:25:00.880Z,10
2023-10-06T20:29:52.771Z,9.6
2023-10-06T20:32:17.965Z,9.6
2023-10-06T20:34:44.718Z,9.5
2023-10-06T20:37:11.540Z,9.4
2023-10-06T20:39:38.008Z,9.4
2023-10-06T20:44:31.327Z,9.5
2023-10-06T20:46:56.410Z,9.4
2023-10-06T20:49:22.994Z,9.4
2023-10-06T20:51:48.536Z,9.4
2023-10-06T20:54:14.897Z,9.3
2023-10-06T20:56:41.628Z,9.3
2023-10-06T20:59:08.467Z,9.2
2023-10-06T21:01:35.296Z,9.3
2023-10-06T21:04:01.634Z,9.2
2023-10-06T21:06:28.345Z,9.1
2023-10-06T21:08:55.331Z,9
2023-10-06T21:11:20.559Z,8.9
2023-10-06T21:13:45.471Z,8.9
2023-10-06T21:16:12.163Z,8.8
2023-10-06T21:18:38.995Z,8.8
2023-10-06T21:21:05.862Z,8.7
2023-10-06T21:23:32.470Z,8.6
2023-10-06T21:28:25.766Z,8.6
2023-10-06T21:30:52.500Z,8.5
2023-10-06T21:33:18.944Z,8.5
2023-10-06T21:35:45.933Z,8.4
2023-10-06T21:38:12.679Z,8.3
2023-10-06T21:40:39.318Z,8.3
2023-10-06T21:43:05.684Z,8.3
2023-10-06T21:45:31.188Z,8.3
2023-10-06T21:47:57.592Z,8.2
2023-10-06T21:50:24.255Z,8.2
2023-10-06T21:52:50.957Z,8.1
2023-10-06T21:57:44.450Z,8
2023-10-06T22:00:11.128Z,8
2023-10-06T22:02:37.786Z,8
2023-10-06T22:05:04.467Z,8
2023-10-06T22:07:31.233Z,7.9
2023-10-06T22:09:57.860Z,7.9
2023-10-06T22:12:24.731Z,7.9
2023-10-06T22:14:51.407Z,7.9
2023-10-06T22:17:16.462Z,7.8
2023-10-06T22:19:43.015Z,7.8
2023-10-06T22:22:10.120Z,7.8
2023-10-06T22:27:03.373Z,7.7
2023-10-06T22:29:30.099Z,7.7
2023-10-06T22:31:56.805Z,7.6
2023-10-06T22:34:21.789Z,7.6
2023-10-06T22:36:48.357Z,7.5
2023-10-06T22:41:41.723Z,7.5
2023-10-06T22:44:08.416Z,7.5
2023-10-06T22:46:34.089Z,7.4
2023-10-06T22:48:59.008Z,7.4
2023-10-06T22:51:25.568Z,7.4
2023-10-06T22:53:52.267Z,7.4
2023-10-06T22:56:19.306Z,7.4
2023-10-06T22:58:45.894Z,7.4
2023-10-06T23:01:12.542Z,7.3
2023-10-06T23:03:38.995Z,7.3
2023-10-06T23:06:05.730Z,7.3
2023-10-06T23:10:59.040Z,7.2
2023-10-06T23:13:25.973Z,7.2
2023-10-06T23:15:52.407Z,7.2
2023-10-06T23:18:19.088Z,7.2
2023-10-06T23:20:44.474Z,7.2
2023-10-06T23:25:37.759Z,7.1
2023-10-06T23:28:04.457Z,7
2023-10-06T23:30:31.057Z,7
2023-10-06T23:32:57.888Z,6.9
2023-10-06T23:35:24.514Z,6.9
2023-10-06T23:40:17.941Z,6.9
2023-10-06T23:42:44.494Z,6.8
2023-10-06T23:45:11.268Z,6.8
2023-10-06T23:47:38.010Z,6.8
2023-10-06T23:50:04.650Z,6.8
2023-10-06T23:54:58.104Z,6.7
2023-10-06T23:57:24.629Z,6.6
2023-10-06T23:59:49.818Z,6.6
